sensor_id;sensor_type;location;lat;lon;timestamp;pressure;altitude;pressure_sealevel;temperature;humidity
706;BME280;21234;48.690;9.016;2023-03-23T00:02:11;95587.22;;;12.14;54.06
706;BME280;21234;48.690;9.016;2023-03-23T00:04:41;95581.53;;;12.10;54.84
706;BME280;21234;48.690;9.016;2023-03-23T00:07:11;95576.88;;;12.16;54.11
706;BME280;21234;48.690;9.016;2023-03-23T00:09:50;95580.97;;;12.13;54.33
706;BME280;21234;48.690;9.016;2023-03-23T00:12:21;95585.34;;;12.09;54.14
706;BME280;21234;48.690;9.016;2023-03-23T00:14:59;95579.63;;;12.10;53.96
706;BME280;21234;48.690;9.016;2023-03-23T00:17:30;95586.16;;;12.04;54.28
706;BME280;21234;48.690;9.016;2023-03-23T00:20:03;95579.63;;;12.05;54.66
706;BME280;21234;48.690;9.016;2023-03-23T00:22:37;95574.72;;;12.02;54.98
706;BME280;21234;48.690;9.016;2023-03-23T00:25:09;95569.28;;;12.02;55.07
706;BME280;21234;48.690;9.016;2023-03-23T00:27:39;95569.84;;;11.99;54.89
706;BME280;21234;48.690;9.016;2023-03-23T00:30:09;95560.03;;;11.98;55.11
706;BME280;21234;48.690;9.016;2023-03-23T00:32:39;95556.50;;;11.98;54.91
706;BME280;21234;48.690;9.016;2023-03-23T00:35:09;95546.44;;;11.93;55.25
706;BME280;21234;48.690;9.016;2023-03-23T00:37:38;95546.16;;;11.90;55.41
706;BME280;21234;48.690;9.016;2023-03-23T00:40:11;95543.72;;;11.83;55.41
706;BME280;21234;48.690;9.016;2023-03-23T00:42:40;95536.34;;;11.73;55.57
706;BME280;21234;48.690;9.016;2023-03-23T00:45:11;95529.53;;;11.71;55.92
706;BME280;21234;48.690;9.016;2023-03-23T00:47:41;95525.50;;;11.68;55.95
706;BME280;21234;48.690;9.016;2023-03-23T00:50:14;95527.94;;;11.60;55.91
706;BME280;21234;48.690;9.016;2023-03-23T00:52:44;95519.78;;;11.60;55.85
706;BME280;21234;48.690;9.016;2023-03-23T00:55:16;95521.41;;;11.61;55.78
706;BME280;21234;48.690;9.016;2023-03-23T00:57:46;95518.41;;;11.67;55.53
706;BME280;21234;48.690;9.016;2023-03-23T01:00:18;95517.31;;;11.68;55.14
706;BME280;21234;48.690;9.016;2023-03-23T01:02:49;95521.66;;;11.74;54.69
706;BME280;21234;48.690;9.016;2023-03-23T01:05:20;95515.38;;;11.74;54.61
706;BME280;21234;48.690;9.016;2023-03-23T01:07:50;95521.09;;;11.72;54.80
706;BME280;21234;48.690;9.016;2023-03-23T01:10:22;95521.38;;;11.76;54.82
706;BME280;21234;48.690;9.016;2023-03-23T01:12:53;95521.09;;;11.72;54.78
706;BME280;21234;48.690;9.016;2023-03-23T01:15:23;95528.47;;;11.72;54.83
706;BME280;21234;48.690;9.016;2023-03-23T01:17:53;95522.22;;;11.76;54.52
706;BME280;21234;48.690;9.016;2023-03-23T01:20:24;95520.06;;;11.68;54.71
706;BME280;21234;48.690;9.016;2023-03-23T01:22:56;95513.78;;;11.63;54.87
706;BME280;21234;48.690;9.016;2023-03-23T01:25:30;95502.91;;;11.58;55.03
706;BME280;21234;48.690;9.016;2023-03-23T01:28:00;95498.00;;;11.60;55.23
706;BME280;21234;48.690;9.016;2023-03-23T01:30:30;95495.00;;;11.56;54.71
706;BME280;21234;48.690;9.016;2023-03-23T01:33:00;95490.66;;;11.50;54.98
706;BME280;21234;48.690;9.016;2023-03-23T01:35:30;95483.88;;;11.48;55.20
706;BME280;21234;48.690;9.016;2023-03-23T01:38:00;95486.59;;;11.48;55.53
706;BME280;21234;48.690;9.016;2023-03-23T01:40:32;95486.59;;;11.53;55.25
706;BME280;21234;48.690;9.016;2023-03-23T01:43:02;95480.06;;;11.43;55.51
706;BME280;21234;48.690;9.016;2023-03-23T01:45:34;95474.06;;;11.41;55.47
706;BME280;21234;48.690;9.016;2023-03-23T01:48:10;95466.19;;;11.40;55.56
706;BME280;21234;48.690;9.016;2023-03-23T01:50:48;95475.69;;;11.42;55.78
706;BME280;21234;48.690;9.016;2023-03-23T01:53:21;95476.25;;;11.44;55.70
706;BME280;21234;48.690;9.016;2023-03-23T01:55:54;95476.78;;;11.47;55.55
706;BME280;21234;48.690;9.016;2023-03-23T01:58:27;95475.97;;;11.46;55.64
706;BME280;21234;48.690;9.016;2023-03-23T02:01:01;95474.88;;;11.47;55.86
706;BME280;21234;48.690;9.016;2023-03-23T02:03:32;95467.00;;;11.51;55.67
706;BME280;21234;48.690;9.016;2023-03-23T02:06:01;95478.16;;;11.54;55.77
706;BME280;21234;48.690;9.016;2023-03-23T02:08:32;95475.97;;;11.56;56.18
706;BME280;21234;48.690;9.016;2023-03-23T02:11:12;95473.50;;;11.60;56.31
706;BME280;21234;48.690;9.016;2023-03-23T02:13:43;95478.41;;;11.63;56.59
706;BME280;21234;48.690;9.016;2023-03-23T02:16:19;95480.59;;;11.61;56.84
706;BME280;21234;48.690;9.016;2023-03-23T02:22:16;95470.25;;;11.58;57.13
706;BME280;21234;48.690;9.016;2023-03-23T02:24:58;95475.13;;;11.61;57.56
706;BME280;21234;48.690;9.016;2023-03-23T02:30:46;95458.00;;;11.60;57.67
706;BME280;21234;48.690;9.016;2023-03-23T02:33:36;95453.91;;;11.53;57.97
706;BME280;21234;48.690;9.016;2023-03-23T02:36:14;95448.47;;;11.53;58.10
706;BME280;21234;48.690;9.016;2023-03-23T02:38:55;95443.84;;;11.53;58.36
706;BME280;21234;48.690;9.016;2023-03-23T02:41:30;95432.69;;;11.50;58.18
706;BME280;21234;48.690;9.016;2023-03-23T02:44:02;95427.81;;;11.47;58.24
706;BME280;21234;48.690;9.016;2023-03-23T02:46:34;95425.06;;;11.47;58.51
706;BME280;21234;48.690;9.016;2023-03-23T02:49:08;95428.88;;;11.45;58.57
706;BME280;21234;48.690;9.016;2023-03-23T02:51:39;95423.72;;;11.44;58.75
706;BME280;21234;48.690;9.016;2023-03-23T02:54:10;95418.28;;;11.49;58.30
706;BME280;21234;48.690;9.016;2023-03-23T02:56:41;95422.91;;;11.49;58.03
706;BME280;21234;48.690;9.016;2023-03-23T02:59:12;95418.00;;;11.45;58.35
706;BME280;21234;48.690;9.016;2023-03-23T03:02:04;95425.06;;;11.47;58.08
706;BME280;21234;48.690;9.016;2023-03-23T03:04:40;95408.75;;;11.52;57.68
706;BME280;21234;48.690;9.016;2023-03-23T03:07:30;95409.00;;;11.55;57.71
706;BME280;21234;48.690;9.016;2023-03-23T03:10:08;95422.06;;;11.58;57.56
706;BME280;21234;48.690;9.016;2023-03-23T03:12:46;95418.78;;;11.61;57.31
706;BME280;21234;48.690;9.016;2023-03-23T03:15:27;95413.06;;;11.63;57.38
706;BME280;21234;48.690;9.016;2023-03-23T03:18:03;95407.06;;;11.66;57.69
706;BME280;21234;48.690;9.016;2023-03-23T03:20:40;95415.25;;;11.66;57.36
706;BME280;21234;48.690;9.016;2023-03-23T03:23:13;95416.59;;;11.63;57.54
706;BME280;21234;48.690;9.016;2023-03-23T03:25:47;95407.88;;;11.66;57.60
706;BME280;21234;48.690;9.016;2023-03-23T03:28:18;95403.00;;;11.63;57.80
706;BME280;21234;48.690;9.016;2023-03-23T03:30:51;95407.88;;;11.66;57.78
706;BME280;21234;48.690;9.016;2023-03-23T03:33:23;95404.63;;;11.64;57.81
706;BME280;21234;48.690;9.016;2023-03-23T03:35:57;95407.88;;;11.66;57.99
706;BME280;21234;48.690;9.016;2023-03-23T03:38:28;95402.72;;;11.65;58.11
706;BME280;21234;48.690;9.016;2023-03-23T03:40:57;95404.88;;;11.68;57.96
706;BME280;21234;48.690;9.016;2023-03-23T03:43:27;95398.59;;;11.72;57.89
706;BME280;21234;48.690;9.016;2023-03-23T03:45:57;95397.53;;;11.68;58.44
706;BME280;21234;48.690;9.016;2023-03-23T03:48:27;95401.34;;;11.67;58.43
706;BME280;21234;48.690;9.016;2023-03-23T03:50:58;95399.44;;;11.68;58.22
706;BME280;21234;48.690;9.016;2023-03-23T03:53:29;95406.78;;;11.67;58.47
706;BME280;21234;48.690;9.016;2023-03-23T03:55:59;95394.81;;;11.68;58.65
706;BME280;21234;48.690;9.016;2023-03-23T03:58:29;95387.47;;;11.69;58.71
706;BME280;21234;48.690;9.016;2023-03-23T04:01:00;95394.50;;;11.70;58.65
706;BME280;21234;48.690;9.016;2023-03-23T04:03:30;95398.31;;;11.74;58.64
706;BME280;21234;48.690;9.016;2023-03-23T04:06:02;95393.97;;;11.78;58.42
706;BME280;21234;48.690;9.016;2023-03-23T04:08:32;95396.97;;;11.76;58.65
706;BME280;21234;48.690;9.016;2023-03-23T04:11:02;95402.41;;;11.76;58.70
706;BME280;21234;48.690;9.016;2023-03-23T04:13:33;95401.31;;;11.77;58.86
706;BME280;21234;48.690;9.016;2023-03-23T04:16:03;95406.19;;;11.75;58.77
706;BME280;21234;48.690;9.016;2023-03-23T04:18:33;95404.03;;;11.77;58.51
706;BME280;21234;48.690;9.016;2023-03-23T04:21:05;95410.03;;;11.80;58.69
706;BME280;21234;48.690;9.016;2023-03-23T04:23:36;95405.13;;;11.82;58.62
706;BME280;21234;48.690;9.016;2023-03-23T04:26:07;95405.38;;;11.85;58.58
706;BME280;21234;48.690;9.016;2023-03-23T04:28:40;95410.00;;;11.85;58.41
706;BME280;21234;48.690;9.016;2023-03-23T04:31:10;95409.72;;;11.86;58.55
706;BME280;21234;48.690;9.016;2023-03-23T04:33:42;95406.19;;;11.86;58.38
706;BME280;21234;48.690;9.016;2023-03-23T04:36:15;95407.00;;;11.86;58.53
706;BME280;21234;48.690;9.016;2023-03-23T04:38:45;95396.13;;;11.81;58.79
706;BME280;21234;48.690;9.016;2023-03-23T04:41:15;95396.41;;;11.80;58.62
706;BME280;21234;48.690;9.016;2023-03-23T04:43:44;95399.13;;;11.80;58.64
706;BME280;21234;48.690;9.016;2023-03-23T04:46:13;95398.31;;;11.79;58.69
706;BME280;21234;48.690;9.016;2023-03-23T04:48:45;95398.03;;;11.81;58.48
706;BME280;21234;48.690;9.016;2023-03-23T04:51:16;95401.84;;;11.85;58.53
706;BME280;21234;48.690;9.016;2023-03-23T04:53:46;95396.94;;;11.87;58.29
706;BME280;21234;48.690;9.016;2023-03-23T04:56:16;95394.50;;;11.85;58.52
706;BME280;21234;48.690;9.016;2023-03-23T04:58:46;95406.72;;;11.88;58.32
706;BME280;21234;48.690;9.016;2023-03-23T05:01:16;95401.56;;;11.86;58.62
706;BME280;21234;48.690;9.016;2023-03-23T05:03:46;95396.41;;;11.85;58.65
706;BME280;21234;48.690;9.016;2023-03-23T05:06:18;95402.66;;;11.85;58.63
706;BME280;21234;48.690;9.016;2023-03-23T05:08:49;95397.78;;;11.82;58.77
706;BME280;21234;48.690;9.016;2023-03-23T05:11:19;95398.03;;;11.81;58.49
706;BME280;21234;48.690;9.016;2023-03-23T05:13:49;95401.31;;;11.83;58.74
706;BME280;21234;48.690;9.016;2023-03-23T05:16:18;95396.94;;;11.87;58.31
706;BME280;21234;48.690;9.016;2023-03-23T05:18:48;95388.50;;;11.88;58.21
706;BME280;21234;48.690;9.016;2023-03-23T05:21:19;95394.50;;;11.85;58.53
706;BME280;21234;48.690;9.016;2023-03-23T05:23:49;95390.13;;;11.84;58.35
706;BME280;21234;48.690;9.016;2023-03-23T05:26:22;95384.94;;;11.88;58.55
706;BME280;21234;48.690;9.016;2023-03-23T05:28:52;95387.94;;;11.91;58.02
706;BME280;21234;48.690;9.016;2023-03-23T05:31:23;95398.00;;;11.96;57.98
706;BME280;21234;48.690;9.016;2023-03-23T05:33:51;95393.63;;;12.00;57.75
706;BME280;21234;48.690;9.016;2023-03-23T05:36:23;95392.22;;;12.02;57.56
706;BME280;21234;48.690;9.016;2023-03-23T05:38:52;95388.09;;;12.10;56.92
706;BME280;21234;48.690;9.016;2023-03-23T05:41:22;95393.25;;;12.11;57.08
706;BME280;21234;48.690;9.016;2023-03-23T05:43:52;95398.16;;;12.15;57.13
706;BME280;21234;48.690;9.016;2023-03-23T05:46:22;95395.44;;;12.15;57.16
706;BME280;21234;48.690;9.016;2023-03-23T05:48:51;95390.53;;;12.11;57.36
706;BME280;21234;48.690;9.016;2023-03-23T05:51:22;95398.16;;;12.15;57.16
706;BME280;21234;48.690;9.016;2023-03-23T05:53:51;95398.41;;;12.18;57.29
706;BME280;21234;48.690;9.016;2023-03-23T05:56:21;95408.47;;;12.23;56.94
706;BME280;21234;48.690;9.016;2023-03-23T05:58:50;95405.47;;;12.24;57.36
706;BME280;21234;48.690;9.016;2023-03-23T06:01:20;95406.53;;;12.28;57.01
706;BME280;21234;48.690;9.016;2023-03-23T06:03:50;95405.97;;;12.31;56.63
706;BME280;21234;48.690;9.016;2023-03-23T06:06:22;95413.81;;;12.38;56.77
706;BME280;21234;48.690;9.016;2023-03-23T06:08:52;95422.25;;;12.36;56.91
706;BME280;21234;48.690;9.016;2023-03-23T06:11:22;95422.03;;;12.33;57.41
706;BME280;21234;48.690;9.016;2023-03-23T06:13:53;95427.22;;;12.34;56.81
706;BME280;21234;48.690;9.016;2023-03-23T06:16:23;95437.53;;;12.37;56.85
706;BME280;21234;48.690;9.016;2023-03-23T06:18:53;95433.97;;;12.37;57.38
706;BME280;21234;48.690;9.016;2023-03-23T06:21:25;95432.06;;;12.37;57.44
706;BME280;21234;48.690;9.016;2023-03-23T06:23:56;95440.53;;;12.36;57.13
706;BME280;21234;48.690;9.016;2023-03-23T06:26:29;95442.69;;;12.39;56.80
706;BME280;21234;48.690;9.016;2023-03-23T06:29:00;95452.25;;;12.36;57.23
706;BME280;21234;48.690;9.016;2023-03-23T06:31:30;95452.03;;;12.33;57.23
706;BME280;21234;48.690;9.016;2023-03-23T06:34:03;95451.97;;;12.38;57.29
706;BME280;21234;48.690;9.016;2023-03-23T06:36:34;95450.06;;;12.38;57.39
706;BME280;21234;48.690;9.016;2023-03-23T06:39:05;95456.31;;;12.39;57.10
706;BME280;21234;48.690;9.016;2023-03-23T06:41:36;95457.13;;;12.44;57.34
706;BME280;21234;48.690;9.016;2023-03-23T06:44:06;95449.19;;;12.48;56.87
706;BME280;21234;48.690;9.016;2023-03-23T06:46:40;95451.06;;;12.53;57.31
706;BME280;21234;48.690;9.016;2023-03-23T06:49:10;95458.13;;;12.59;56.63
706;BME280;21234;48.690;9.016;2023-03-23T06:51:42;95457.00;;;12.65;56.41
706;BME280;21234;48.690;9.016;2023-03-23T06:54:12;95464.31;;;12.69;56.68
706;BME280;21234;48.690;9.016;2023-03-23T06:56:42;95475.19;;;12.74;56.62
706;BME280;21234;48.690;9.016;2023-03-23T06:59:13;95479.53;;;12.81;56.22
706;BME280;21234;48.690;9.016;2023-03-23T07:01:43;95471.34;;;12.81;55.59
706;BME280;21234;48.690;9.016;2023-03-23T07:04:14;95474.88;;;12.81;56.42
706;BME280;21234;48.690;9.016;2023-03-23T07:06:46;95470.00;;;12.78;56.17
706;BME280;21234;48.690;9.016;2023-03-23T07:09:17;95472.47;;;12.74;55.94
706;BME280;21234;48.690;9.016;2023-03-23T07:11:47;95482.81;;;12.77;55.92
706;BME280;21234;48.690;9.016;2023-03-23T07:14:18;95475.72;;;12.76;56.90
706;BME280;21234;48.690;9.016;2023-03-23T07:16:49;95485.00;;;12.75;56.47
706;BME280;21234;48.690;9.016;2023-03-23T07:19:19;95488.00;;;12.74;56.39
706;BME280;21234;48.690;9.016;2023-03-23T07:21:51;95491.31;;;12.71;56.58
706;BME280;21234;48.690;9.016;2023-03-23T07:24:20;95499.75;;;12.69;56.79
706;BME280;21234;48.690;9.016;2023-03-23T07:26:50;95500.63;;;12.65;57.05
706;BME280;21234;48.690;9.016;2023-03-23T07:29:19;95509.63;;;12.65;57.48
706;BME280;21234;48.690;9.016;2023-03-23T07:31:49;95507.47;;;12.62;57.57
706;BME280;21234;48.690;9.016;2023-03-23T07:34:19;95517.84;;;12.60;57.84
706;BME280;21234;48.690;9.016;2023-03-23T07:36:51;95520.81;;;12.64;58.09
706;BME280;21234;48.690;9.016;2023-03-23T07:39:21;95529.28;;;12.62;58.07
706;BME280;21234;48.690;9.016;2023-03-23T07:41:53;95523.25;;;12.65;58.17
706;BME280;21234;48.690;9.016;2023-03-23T07:44:25;95522.13;;;12.71;58.39
706;BME280;21234;48.690;9.016;2023-03-23T07:46:55;95514.19;;;12.75;58.30
706;BME280;21234;48.690;9.016;2023-03-23T07:49:26;95513.31;;;12.85;58.27
706;BME280;21234;48.690;9.016;2023-03-23T07:51:59;95514.34;;;12.94;58.30
706;BME280;21234;48.690;9.016;2023-03-23T07:54:30;95507.28;;;12.93;58.60
706;BME280;21234;48.690;9.016;2023-03-23T07:57:03;95519.19;;;13.02;58.70
706;BME280;21234;48.690;9.016;2023-03-23T07:59:34;95515.16;;;12.99;59.06
706;BME280;21234;48.690;9.016;2023-03-23T08:02:04;95518.16;;;12.98;59.43
706;BME280;21234;48.690;9.016;2023-03-23T08:04:34;95526.00;;;13.04;59.42
706;BME280;21234;48.690;9.016;2023-03-23T08:07:06;95533.38;;;13.04;59.46
706;BME280;21234;48.690;9.016;2023-03-23T08:09:39;95541.56;;;13.04;59.90
706;BME280;21234;48.690;9.016;2023-03-23T08:12:09;95538.53;;;13.05;60.06
706;BME280;21234;48.690;9.016;2023-03-23T08:14:39;95541.84;;;13.02;60.82
706;BME280;21234;48.690;9.016;2023-03-23T08:17:09;95533.59;;;13.12;60.46
706;BME280;21234;48.690;9.016;2023-03-23T08:19:39;95531.03;;;13.31;60.30
706;BME280;21234;48.690;9.016;2023-03-23T08:22:11;95522.78;;;13.36;60.23
706;BME280;21234;48.690;9.016;2023-03-23T08:24:42;95547.28;;;13.47;60.00
706;BME280;21234;48.690;9.016;2023-03-23T08:27:12;95548.91;;;13.48;60.62
706;BME280;21234;48.690;9.016;2023-03-23T08:29:44;95555.97;;;13.54;60.89
706;BME280;21234;48.690;9.016;2023-03-23T08:32:15;95558.44;;;13.50;61.34
706;BME280;21234;48.690;9.016;2023-03-23T08:34:45;95563.16;;;13.39;61.71
706;BME280;21234;48.690;9.016;2023-03-23T08:37:16;95554.97;;;13.39;62.05
706;BME280;21234;48.690;9.016;2023-03-23T08:39:49;95553.72;;;13.27;62.43
706;BME280;21234;48.690;9.016;2023-03-23T08:42:20;95553.09;;;13.35;63.03
706;BME280;21234;48.690;9.016;2023-03-23T08:44:49;95548.13;;;13.42;63.40
706;BME280;21234;48.690;9.016;2023-03-23T08:47:19;95556.63;;;13.35;63.12
706;BME280;21234;48.690;9.016;2023-03-23T08:49:49;95563.97;;;13.40;64.00
706;BME280;21234;48.690;9.016;2023-03-23T08:52:22;95564.78;;;13.40;62.96
706;BME280;21234;48.690;9.016;2023-03-23T08:54:52;95574.47;;;13.28;63.50
706;BME280;21234;48.690;9.016;2023-03-23T08:57:22;95581.19;;;13.35;63.83
706;BME280;21234;48.690;9.016;2023-03-23T08:59:51;95581.16;;;13.40;63.69
706;BME280;21234;48.690;9.016;2023-03-23T09:02:27;95571.97;;;13.31;64.06
706;BME280;21234;48.690;9.016;2023-03-23T09:04:59;95576.56;;;13.36;63.64
706;BME280;21234;48.690;9.016;2023-03-23T09:07:31;95582.75;;;13.47;63.53
706;BME280;21234;48.690;9.016;2023-03-23T09:10:00;95580.00;;;13.52;63.24
706;BME280;21234;48.690;9.016;2023-03-23T09:12:29;95587.63;;;13.55;63.75
706;BME280;21234;48.690;9.016;2023-03-23T09:14:58;95587.09;;;13.53;63.35
706;BME280;21234;48.690;9.016;2023-03-23T09:17:30;95595.25;;;13.58;63.39
706;BME280;21234;48.690;9.016;2023-03-23T09:20:00;95586.66;;;13.69;63.67
706;BME280;21234;48.690;9.016;2023-03-23T09:22:35;95599.19;;;13.75;63.33
706;BME280;21234;48.690;9.016;2023-03-23T09:25:06;95593.59;;;13.91;63.61
706;BME280;21234;48.690;9.016;2023-03-23T09:27:36;95591.31;;;13.98;63.69
706;BME280;21234;48.690;9.016;2023-03-23T09:30:09;95597.72;;;13.88;62.03
706;BME280;21234;48.690;9.016;2023-03-23T09:32:39;95606.28;;;13.76;62.42
706;BME280;21234;48.690;9.016;2023-03-23T09:35:11;95608.28;;;13.66;62.63
706;BME280;21234;48.690;9.016;2023-03-23T09:37:44;95603.41;;;13.63;62.66
706;BME280;21234;48.690;9.016;2023-03-23T09:40:16;95624.47;;;13.57;62.91
706;BME280;21234;48.690;9.016;2023-03-23T09:43:13;95624.75;;;13.56;63.03
706;BME280;21234;48.690;9.016;2023-03-23T09:45:55;95623.09;;;13.60;63.89
706;BME280;21234;48.690;9.016;2023-03-23T09:48:33;95632.09;;;13.60;63.82
706;BME280;21234;48.690;9.016;2023-03-23T09:51:16;95622.47;;;13.68;64.64
706;BME280;21234;48.690;9.016;2023-03-23T09:53:52;95622.25;;;13.64;64.03
706;BME280;21234;48.690;9.016;2023-03-23T09:56:25;95628.41;;;13.75;64.80
706;BME280;21234;48.690;9.016;2023-03-23T09:58:57;95620.09;;;13.90;63.72
706;BME280;21234;48.690;9.016;2023-03-23T10:01:32;95614.31;;;13.97;63.21
706;BME280;21234;48.690;9.016;2023-03-23T10:04:09;95614.00;;;14.27;63.36
706;BME280;21234;48.690;9.016;2023-03-23T10:06:41;95607.28;;;14.43;61.90
706;BME280;21234;48.690;9.016;2023-03-23T10:09:16;95617.72;;;14.89;60.69
706;BME280;21234;48.690;9.016;2023-03-23T10:11:55;95619.34;;;14.66;61.21
706;BME280;21234;48.690;9.016;2023-03-23T10:14:46;95618.75;;;14.45;61.75
706;BME280;21234;48.690;9.016;2023-03-23T10:17:23;95614.34;;;14.50;62.40
706;BME280;21234;48.690;9.016;2023-03-23T10:20:05;95617.50;;;14.62;62.10
706;BME280;21234;48.690;9.016;2023-03-23T10:22:47;95620.38;;;14.70;61.73
706;BME280;21234;48.690;9.016;2023-03-23T10:25:24;95630.41;;;14.56;61.55
706;BME280;21234;48.690;9.016;2023-03-23T10:27:59;95633.59;;;14.63;62.05
706;BME280;21234;48.690;9.016;2023-03-23T10:30:33;95627.78;;;14.46;61.94
706;BME280;21234;48.690;9.016;2023-03-23T10:33:08;95632.38;;;14.51;62.44
706;BME280;21234;48.690;9.016;2023-03-23T10:35:43;95622.78;;;14.53;61.89
706;BME280;21234;48.690;9.016;2023-03-23T10:38:21;95632.94;;;14.71;61.16
706;BME280;21234;48.690;9.016;2023-03-23T10:40:55;95634.25;;;14.79;61.52
706;BME280;21234;48.690;9.016;2023-03-23T10:43:27;95633.97;;;14.99;61.40
706;BME280;21234;48.690;9.016;2023-03-23T10:45:59;95636.75;;;15.18;61.01
706;BME280;21234;48.690;9.016;2023-03-23T10:48:31;95626.03;;;15.40;62.12
706;BME280;21234;48.690;9.016;2023-03-23T10:51:06;95624.19;;;15.73;59.50
706;BME280;21234;48.690;9.016;2023-03-23T10:53:42;95631.50;;;15.78;58.33
706;BME280;21234;48.690;9.016;2023-03-23T10:56:26;95636.63;;;15.66;58.61
706;BME280;21234;48.690;9.016;2023-03-23T10:58:56;95634.97;;;15.46;58.42
706;BME280;21234;48.690;9.016;2023-03-23T11:01:31;95632.09;;;15.37;58.18
706;BME280;21234;48.690;9.016;2023-03-23T11:04:02;95628.56;;;15.56;59.65
706;BME280;21234;48.690;9.016;2023-03-23T11:06:34;95621.44;;;15.55;59.85
706;BME280;21234;48.690;9.016;2023-03-23T11:09:12;95623.28;;;15.40;59.73
706;BME280;21234;48.690;9.016;2023-03-23T11:11:49;95615.97;;;15.36;60.53
706;BME280;21234;48.690;9.016;2023-03-23T11:14:24;95618.81;;;15.07;59.89
706;BME280;21234;48.690;9.016;2023-03-23T11:16:55;95626.97;;;15.12;60.96
706;BME280;21234;48.690;9.016;2023-03-23T11:19:27;95617.06;;;15.16;63.62
706;BME280;21234;48.690;9.016;2023-03-23T11:22:08;95619.94;;;15.06;61.62
706;BME280;21234;48.690;9.016;2023-03-23T11:24:44;95619.47;;;14.99;61.37
706;BME280;21234;48.690;9.016;2023-03-23T11:27:17;95625.47;;;15.01;62.39
706;BME280;21234;48.690;9.016;2023-03-23T11:29:50;95615.78;;;15.08;61.22
706;BME280;21234;48.690;9.016;2023-03-23T11:32:24;95599.69;;;15.44;62.38
706;BME280;21234;48.690;9.016;2023-03-23T11:34:58;95601.91;;;15.61;59.24
706;BME280;21234;48.690;9.016;2023-03-23T11:37:34;95599.16;;;15.80;59.19
706;BME280;21234;48.690;9.016;2023-03-23T11:40:17;95592.25;;;15.83;57.16
706;BME280;21234;48.690;9.016;2023-03-23T11:42:49;95600.25;;;15.79;56.24
706;BME280;21234;48.690;9.016;2023-03-23T11:45:20;95603.66;;;15.71;56.39
706;BME280;21234;48.690;9.016;2023-03-23T11:47:58;95594.66;;;15.52;56.81
706;BME280;21234;48.690;9.016;2023-03-23T11:50:30;95610.94;;;15.43;57.40
706;BME280;21234;48.690;9.016;2023-03-23T11:53:10;95606.34;;;15.38;57.47
706;BME280;21234;48.690;9.016;2023-03-23T11:55:57;95598.63;;;15.40;58.22
706;BME280;21234;48.690;9.016;2023-03-23T11:58:31;95601.53;;;15.49;57.38
706;BME280;21234;48.690;9.016;2023-03-23T12:01:06;95600.84;;;15.38;57.46
706;BME280;21234;48.690;9.016;2023-03-23T12:06:39;95595.81;;;15.45;56.75
706;BME280;21234;48.690;9.016;2023-03-23T12:09:21;95603.03;;;15.23;56.87
706;BME280;21234;48.690;9.016;2023-03-23T12:12:03;95592.66;;;15.20;57.20
706;BME280;21234;48.690;9.016;2023-03-23T12:14:41;95594.88;;;15.18;57.82
706;BME280;21234;48.690;9.016;2023-03-23T12:17:21;95586.50;;;15.28;56.86
706;BME280;21234;48.690;9.016;2023-03-23T12:20:01;95588.66;;;15.12;56.66
706;BME280;21234;48.690;9.016;2023-03-23T12:22:44;95591.09;;;15.32;56.94
706;BME280;21234;48.690;9.016;2023-03-23T12:25:32;95595.31;;;15.43;57.32
706;BME280;21234;48.690;9.016;2023-03-23T12:28:10;95589.09;;;15.38;56.13
706;BME280;21234;48.690;9.016;2023-03-23T12:30:51;95590.28;;;15.32;56.61
706;BME280;21234;48.690;9.016;2023-03-23T12:33:30;95599.38;;;15.27;56.11
706;BME280;21234;48.690;9.016;2023-03-23T12:36:17;95585.97;;;15.44;55.66
706;BME280;21234;48.690;9.016;2023-03-23T12:39:08;95585.38;;;15.85;55.59
706;BME280;21234;48.690;9.016;2023-03-23T12:41:45;95585.81;;;16.06;54.54
706;BME280;21234;48.690;9.016;2023-03-23T12:44:23;95586.44;;;16.17;54.31
706;BME280;21234;48.690;9.016;2023-03-23T12:47:15;95577.50;;;16.11;54.14
706;BME280;21234;48.690;9.016;2023-03-23T12:49:50;95573.16;;;16.24;54.92
706;BME280;21234;48.690;9.016;2023-03-23T12:52:24;95572.78;;;15.98;54.87
706;BME280;21234;48.690;9.016;2023-03-23T12:54:59;95581.44;;;16.05;55.35
706;BME280;21234;48.690;9.016;2023-03-23T12:57:34;95572.56;;;15.94;54.80
706;BME280;21234;48.690;9.016;2023-03-23T13:00:08;95572.41;;;16.04;54.60
706;BME280;21234;48.690;9.016;2023-03-23T13:02:46;95570.00;;;16.17;54.85
706;BME280;21234;48.690;9.016;2023-03-23T13:05:33;95570.78;;;16.03;54.51
706;BME280;21234;48.690;9.016;2023-03-23T13:08:09;95561.75;;;16.03;54.87
706;BME280;21234;48.690;9.016;2023-03-23T13:10:40;95554.53;;;16.07;54.59
706;BME280;21234;48.690;9.016;2023-03-23T13:13:14;95554.97;;;16.41;54.21
706;BME280;21234;48.690;9.016;2023-03-23T13:15:51;95551.34;;;16.46;53.02
706;BME280;21234;48.690;9.016;2023-03-23T13:18:35;95551.03;;;16.48;52.69
706;BME280;21234;48.690;9.016;2023-03-23T13:21:14;95535.38;;;16.48;52.27
706;BME280;21234;48.690;9.016;2023-03-23T13:23:46;95536.00;;;16.45;52.51
706;BME280;21234;48.690;9.016;2023-03-23T13:26:17;95546.97;;;16.45;52.30
706;BME280;21234;48.690;9.016;2023-03-23T13:28:56;95529.66;;;16.58;52.61
706;BME280;21234;48.690;9.016;2023-03-23T13:31:29;95530.69;;;16.35;51.91
706;BME280;21234;48.690;9.016;2023-03-23T13:34:04;95532.94;;;16.33;52.09
706;BME280;21234;48.690;9.016;2023-03-23T13:36:37;95526.22;;;16.11;53.20
706;BME280;21234;48.690;9.016;2023-03-23T13:39:17;95524.41;;;16.48;53.47
706;BME280;21234;48.690;9.016;2023-03-23T13:41:48;95524.09;;;16.50;52.51
706;BME280;21234;48.690;9.016;2023-03-23T13:44:26;95516.78;;;16.72;52.24
706;BME280;21234;48.690;9.016;2023-03-23T13:46:55;95525.72;;;16.64;51.92
706;BME280;21234;48.690;9.016;2023-03-23T13:49:25;95509.25;;;16.78;52.55
706;BME280;21234;48.690;9.016;2023-03-23T13:52:15;95517.00;;;16.76;52.56
706;BME280;21234;48.690;9.016;2023-03-23T13:54:44;95519.94;;;16.66;52.18
706;BME280;21234;48.690;9.016;2023-03-23T13:57:25;95523.19;;;16.40;53.06
706;BME280;21234;48.690;9.016;2023-03-23T13:59:58;95510.69;;;16.34;53.49
706;BME280;21234;48.690;9.016;2023-03-23T14:02:31;95509.25;;;16.09;51.45
706;BME280;21234;48.690;9.016;2023-03-23T14:05:44;95503.34;;;15.89;51.51